createdAt,value
2022-12-17T00:02:16.175Z,-11200.97
2022-12-17T00:05:39.952Z,-11201.13
2022-12-17T00:09:03.601Z,-11202.09
2022-12-17T00:12:32.890Z,-11206.88
2022-12-17T00:15:57.656Z,-11198.72
2022-12-17T00:19:18.096Z,-11208.00
2022-12-17T00:22:42.369Z,-11200.41
2022-12-17T00:26:10.163Z,-11196.91
2022-12-17T00:29:34.335Z,-11200.28
2022-12-17T00:32:59.251Z,-11197.47
2022-12-17T00:36:23.537Z,-11189.72
2022-12-17T00:39:47.613Z,-11191.97
2022-12-17T00:43:18.546Z,-11183.97
2022-12-17T00:46:42.576Z,-11188.47
2022-12-17T00:50:07.568Z,-11187.19
2022-12-17T00:53:31.386Z,-11193.81
2022-12-17T00:56:56.337Z,-11199.28
2022-12-17T01:00:20.533Z,-11199.00
2022-12-17T01:03:44.368Z,-11193.94
2022-12-17T01:07:09.549Z,-11193.38
2022-12-17T01:10:33.344Z,-11192.81
2022-12-17T01:13:57.172Z,-11195.06
2022-12-17T01:17:32.573Z,-11196.19
2022-12-17T01:20:56.145Z,-11200.56
2022-12-17T01:24:21.310Z,-11192.97
2022-12-17T01:27:44.925Z,-11192.97
2022-12-17T01:31:08.886Z,-11190.56
2022-12-17T01:34:32.937Z,-11192.25
2022-12-17T01:37:57.041Z,-11194.78
2022-12-17T01:41:23.575Z,-11184.94
2022-12-17T01:45:14.787Z,-11190.72
2022-12-17T01:48:41.140Z,-11200.00
2022-12-17T01:52:04.874Z,-11198.03
2022-12-17T01:55:29.069Z,-11188.31
2022-12-17T01:58:55.093Z,-11195.50
2022-12-17T02:02:18.928Z,-11196.75
2022-12-17T02:05:51.770Z,-11200.69
2022-12-17T02:09:24.461Z,-11200.41
2022-12-17T02:12:56.441Z,-11193.09
2022-12-17T02:16:27.870Z,-11185.78
2022-12-17T02:20:03.239Z,-11192.81
2022-12-17T02:23:39.487Z,-11192.25
2022-12-17T02:27:06.893Z,-11188.59
2022-12-17T02:30:30.933Z,-11189.72
2022-12-17T02:33:55.054Z,-11191.28
2022-12-17T02:37:18.983Z,-11192.25
2022-12-17T02:40:44.380Z,-11197.47
2022-12-17T02:44:11.612Z,-11201.53
2022-12-17T02:47:37.649Z,-11199.16
2022-12-17T02:51:09.789Z,-11201.13
2022-12-17T02:54:33.352Z,-11202.09
2022-12-17T02:57:57.379Z,-11203.66
2022-12-17T03:01:23.234Z,-11200.41
2022-12-17T03:04:47.354Z,-11199.84
2022-12-17T03:08:11.499Z,-11199.56
2022-12-17T03:11:35.527Z,-11203.38
2022-12-17T03:14:59.503Z,-11206.03
2022-12-17T03:18:24.763Z,-11204.50
2022-12-17T03:21:48.705Z,-11202.66
2022-12-17T03:25:27.396Z,-11199.56
2022-12-17T03:28:51.090Z,-11200.97
2022-12-17T03:32:25.891Z,-11196.75
2022-12-17T03:35:51.418Z,-11197.31
2022-12-17T03:39:15.226Z,-11191.13
2022-12-17T03:42:39.350Z,-11199.84
2022-12-17T03:46:11.094Z,-11201.53
2022-12-17T03:49:35.222Z,-11206.88
2022-12-17T03:53:00.233Z,-11195.63
2022-12-17T03:56:23.957Z,-11205.06
2022-12-17T03:59:48.003Z,-11203.22
2022-12-17T04:03:12.315Z,-11208.00
2022-12-17T04:06:36.409Z,-11205.47
2022-12-17T04:10:01.085Z,-11200.84
2022-12-17T04:13:25.172Z,-11196.63
2022-12-17T04:16:49.443Z,-11199.00
2022-12-17T04:20:12.685Z,-11203.22
2022-12-17T04:23:36.788Z,-11201.53
2022-12-17T04:27:01.855Z,-11200.41
2022-12-17T04:30:26.946Z,-11203.38
2022-12-17T04:33:50.885Z,-11199.56
2022-12-17T04:37:14.636Z,-11207.31
2022-12-17T04:40:38.440Z,-11208.56
2022-12-17T04:44:03.799Z,-11208.00
2022-12-17T04:47:32.128Z,-11209.13
2022-12-17T04:50:55.863Z,-11202.25
2022-12-17T04:54:16.404Z,-11209.69
2022-12-17T04:57:41.953Z,-11210.41
2022-12-17T05:01:09.423Z,-11207.03
2022-12-17T05:04:33.492Z,-11205.91
2022-12-17T05:07:57.610Z,-11208.84
2022-12-17T05:11:22.642Z,-11213.63
2022-12-17T05:14:46.516Z,-11210.25
2022-12-17T05:18:11.785Z,-11212.94
2022-12-17T05:21:35.992Z,-11211.09
2022-12-17T05:24:59.968Z,-11214.47
2022-12-17T05:28:24.347Z,-11215.03
2022-12-17T05:31:47.985Z,-11212.78
2022-12-17T05:35:12.833Z,-11211.66
2022-12-17T05:38:36.870Z,-11208.56
2022-12-17T05:42:00.437Z,-11210.97
2022-12-17T05:45:24.820Z,-11212.50
2022-12-17T05:48:49.607Z,-11215.59
2022-12-17T05:52:26.581Z,-11217.28
2022-12-17T05:55:49.968Z,-11217.28
2022-12-17T05:59:13.744Z,-11217.16
2022-12-17T06:02:37.635Z,-11212.94
2022-12-17T06:06:01.933Z,-11214.19
2022-12-17T06:09:26.950Z,-11211.09
2022-12-17T06:12:51.307Z,-11207.03
2022-12-17T06:16:15.016Z,-11211.09
2022-12-17T06:19:39.179Z,-11211.38
2022-12-17T06:23:02.875Z,-11210.25
2022-12-17T06:26:27.509Z,-11210.81
2022-12-17T06:29:51.260Z,-11209.69
2022-12-17T06:33:22.624Z,-11210.41
2022-12-17T06:36:46.757Z,-11209.97
2022-12-17T06:40:10.776Z,-11208.00
2022-12-17T06:43:37.794Z,-11206.88
2022-12-17T06:47:01.883Z,-11209.56
2022-12-17T06:50:26.194Z,-11214.19
2022-12-17T06:53:58.092Z,-11211.38
2022-12-17T06:57:21.774Z,-11205.75
2022-12-17T07:00:46.983Z,-11196.19
2022-12-17T07:04:11.080Z,-11208.72
2022-12-17T07:07:34.996Z,-11210.25
2022-12-17T07:10:58.720Z,-11208.00
2022-12-17T07:14:22.452Z,-11198.72
2022-12-17T07:17:47.025Z,-11205.19
2022-12-17T07:21:12.440Z,-11207.44
2022-12-17T07:24:36.778Z,-11207.72
2022-12-17T07:28:00.415Z,-11206.31
2022-12-17T07:31:24.148Z,-11211.53
2022-12-17T07:34:49.911Z,-11214.75
2022-12-17T07:38:20.451Z,-11216.16
2022-12-17T07:41:44.865Z,-11213.63
2022-12-17T07:45:08.629Z,-11220.25
2022-12-17T07:48:32.828Z,-11219.13
2022-12-17T07:51:58.047Z,-11218.69
2022-12-17T07:55:22.311Z,-11224.47
2022-12-17T07:58:45.905Z,-11209.41
2022-12-17T08:02:10.129Z,-11217.16
2022-12-17T08:05:34.615Z,-11224.19
2022-12-17T08:08:59.825Z,-11220.66
2022-12-17T08:12:23.698Z,-11225.16
2022-12-17T08:16:02.090Z,-11228.69
2022-12-17T08:19:25.784Z,-11221.94
2022-12-17T08:22:49.260Z,-11223.62
2022-12-17T08:26:13.900Z,-11220.38
2022-12-17T08:29:37.972Z,-11225.72
2022-12-17T08:33:01.921Z,-11227.97
2022-12-17T08:36:25.518Z,-11227.69
2022-12-17T08:39:49.241Z,-11231.91
2022-12-17T08:43:16.565Z,-11243.88
2022-12-17T08:46:40.495Z,-11247.41
2022-12-17T08:50:04.550Z,-11232.75
2022-12-17T08:53:34.616Z,-11239.66
2022-12-17T08:56:59.223Z,-11242.19
2022-12-17T09:00:26.093Z,-11243.19
2022-12-17T09:03:55.361Z,-11239.22
2022-12-17T09:07:19.061Z,-11236.16
2022-12-17T09:10:42.881Z,-11246.00
2022-12-17T09:14:06.892Z,-11252.19
2022-12-17T09:17:31.740Z,-11259.50
2022-12-17T09:20:55.499Z,-11263.88
2022-12-17T09:24:19.730Z,-11262.03
2022-12-17T09:27:55.723Z,-11247.41
2022-12-17T09:31:19.933Z,-11244.03
2022-12-17T09:34:41.497Z,-11237.56
2022-12-17T09:38:10.909Z,-11230.50
2022-12-17T09:41:44.192Z,-11234.03
2022-12-17T09:45:11.905Z,-11227.41
2022-12-17T09:48:42.110Z,-11233.75
2022-12-17T09:52:07.664Z,-11242.59
2022-12-17T09:55:31.797Z,-11242.31
2022-12-17T09:58:57.271Z,-11240.34
2022-12-17T10:02:22.294Z,-11243.47
2022-12-17T10:05:49.874Z,-11237.00
2022-12-17T10:09:17.993Z,-11245.44
2022-12-17T10:12:41.886Z,-11249.78
2022-12-17T10:16:05.983Z,-11240.91
2022-12-17T10:19:34.332Z,-11242.03
2022-12-17T10:23:02.961Z,-11241.63
2022-12-17T10:26:24.257Z,-11246.69
2022-12-17T10:29:52.428Z,-11248.53
2022-12-17T10:33:16.664Z,-11242.19
2022-12-17T10:36:42.415Z,-11250.22
2022-12-17T10:40:14.358Z,-11256.81
2022-12-17T10:43:48.565Z,-11254.44
2022-12-17T10:47:16.064Z,-11253.03
2022-12-17T10:50:41.069Z,-11257.38
2022-12-17T10:54:08.572Z,-11250.22
2022-12-17T10:57:42.991Z,-11263.44
2022-12-17T11:01:08.399Z,-11254.44
2022-12-17T11:04:44.289Z,-11262.03
2022-12-17T11:08:08.678Z,-11267.66
2022-12-17T11:11:33.423Z,-11262.31
2022-12-17T11:15:07.020Z,-11266.25
2022-12-17T11:18:38.021Z,-11268.50
2022-12-17T11:22:04.052Z,-11275.53
2022-12-17T11:25:50.777Z,-11269.78
2022-12-17T11:29:14.575Z,-11282.84
2022-12-17T11:32:59.379Z,-11274.41
2022-12-17T11:36:38.796Z,-11277.66
2022-12-17T11:40:08.268Z,-11279.19
2022-12-17T11:43:40.186Z,-11274.41
2022-12-17T11:47:10.687Z,-11281.16
2022-12-17T11:50:42.943Z,-11284.41
2022-12-17T11:54:18.587Z,-11292.16
2022-12-17T11:57:47.447Z,-11301.31
2022-12-17T12:01:22.885Z,-11294.97
2022-12-17T12:05:04.221Z,-11292.16
2022-12-17T12:08:37.891Z,-11281.16
2022-12-17T12:12:13.027Z,-11284.13
2022-12-17T12:15:48.500Z,-11288.19
2022-12-17T12:19:24.626Z,-11295.81
2022-12-17T12:22:56.258Z,-11299.63
2022-12-17T12:26:32.273Z,-11300.88
2022-12-17T12:30:14.110Z,-11305.53
2022-12-17T12:33:50.764Z,-11299.63
2022-12-17T12:37:18.037Z,-11297.91
2022-12-17T12:40:53.153Z,-11294.13
2022-12-17T12:44:19.553Z,-11298.78
2022-12-17T12:47:55.393Z,-11284.69
2022-12-17T12:51:33.705Z,-11297.91
2022-12-17T12:55:10.880Z,-11296.66
2022-12-17T12:58:45.356Z,-11304.53
2022-12-17T13:02:24.266Z,-11300.31
2022-12-17T13:05:39.117Z,-11285.69
2022-12-17T13:08:45.285Z,-11288.06
2022-12-17T13:11:55.768Z,-11284.28
2022-12-17T13:15:19.617Z,-11291.44
2022-12-17T13:18:31.200Z,-11291.16
2022-12-17T13:21:39.315Z,-11293.41
2022-12-17T13:24:47.758Z,-11293.41
2022-12-17T13:27:54.304Z,-11285.53
2022-12-17T13:31:07.311Z,-11276.09
2022-12-17T13:34:20.454Z,-11285.97
2022-12-17T13:37:41.395Z,-11294.53
2022-12-17T13:40:57.972Z,-11273.84
2022-12-17T13:44:18.452Z,-11273.00
2022-12-17T13:47:26.392Z,-11268.38
2022-12-17T13:50:34.661Z,-11266.25
2022-12-17T13:53:53.997Z,-11270.06
2022-12-17T13:57:09.719Z,-11264.56
2022-12-17T14:00:22.938Z,-11261.59
2022-12-17T14:03:56.504Z,-11259.91
2022-12-17T14:07:00.019Z,-11261.31
2022-12-17T14:10:17.065Z,-11259.78
2022-12-17T14:13:23.419Z,-11262.31
2022-12-17T14:16:30.402Z,-11260.19
2022-12-17T14:19:38.362Z,-11265.41
2022-12-17T14:22:51.295Z,-11265.13
2022-12-17T14:25:59.842Z,-11264.28
2022-12-17T14:29:14.306Z,-11261.75
2022-12-17T14:32:26.485Z,-11255.28
2022-12-17T14:35:37.422Z,-11260.75
2022-12-17T14:38:54.694Z,-11261.88
2022-12-17T14:42:29.761Z,-11254.00
2022-12-17T14:45:56.562Z,-11258.22
2022-12-17T14:49:06.093Z,-11262.88
2022-12-17T14:52:15.793Z,-11261.47
2022-12-17T14:55:37.417Z,-11259.22
2022-12-17T14:58:47.924Z,-11258.09
2022-12-17T15:01:56.354Z,-11257.81
2022-12-17T15:05:04.012Z,-11258.09
2022-12-17T15:08:12.876Z,-11253.72
2022-12-17T15:11:21.999Z,-11250.34
2022-12-17T15:14:29.907Z,-11247.41
2022-12-17T15:17:36.346Z,-11252.75
2022-12-17T15:20:43.073Z,-11253.31
2022-12-17T15:23:50.097Z,-11251.91
2022-12-17T15:26:56.483Z,-11252.31
2022-12-17T15:30:05.868Z,-11256.13
2022-12-17T15:33:12.692Z,-11251.06
2022-12-17T15:36:19.258Z,-11255.84
2022-12-17T15:39:25.278Z,-11254.28
2022-12-17T15:42:49.514Z,-11253.03
2022-12-17T15:46:02.503Z,-11254.72
2022-12-17T15:49:08.599Z,-11255.28
2022-12-17T15:52:15.610Z,-11248.53
2022-12-17T15:55:21.892Z,-11254.72
2022-12-17T15:58:28.308Z,-11253.72
2022-12-17T16:01:36.785Z,-11255.00
2022-12-17T16:04:43.116Z,-11256.81
2022-12-17T16:07:49.342Z,-11251.19
2022-12-17T16:10:55.318Z,-11246.84
2022-12-17T16:14:01.615Z,-11248.25
2022-12-17T16:17:09.468Z,-11246.13
2022-12-17T16:20:15.797Z,-11242.47
2022-12-17T16:23:22.685Z,-11239.66
2022-12-17T16:26:29.304Z,-11236.16
2022-12-17T16:29:35.693Z,-11237.28
2022-12-17T16:32:43.588Z,-11233.31
2022-12-17T16:35:52.281Z,-11234.19
2022-12-17T16:38:59.052Z,-11231.63
2022-12-17T16:42:05.584Z,-11225.44
2022-12-17T16:45:12.387Z,-11232.75
2022-12-17T16:48:20.546Z,-11238.81
2022-12-17T16:51:29.773Z,-11235.31
2022-12-17T16:54:36.207Z,-11238.94
2022-12-17T16:57:42.282Z,-11236.72
2022-12-17T17:00:55.349Z,-11241.19
2022-12-17T17:04:04.571Z,-11237.84
2022-12-17T17:07:11.066Z,-11232.75
2022-12-17T17:10:17.408Z,-11237.28
2022-12-17T17:13:23.897Z,-11235.31
2022-12-17T17:16:30.529Z,-11231.34
2022-12-17T17:19:38.722Z,-11233.59
2022-12-17T17:22:45.155Z,-11233.59
2022-12-17T17:25:57.585Z,-11231.34
2022-12-17T17:29:05.695Z,-11234.03
2022-12-17T17:32:13.266Z,-11231.91
2022-12-17T17:35:21.289Z,-11233.31
2022-12-17T17:38:27.589Z,-11233.31
2022-12-17T17:41:35.247Z,-11224.59
2022-12-17T17:44:41.578Z,-11226.72
2022-12-17T17:47:48.151Z,-11227.84
2022-12-17T17:51:03.629Z,-11228.69
2022-12-17T17:54:14.235Z,-11233.03
2022-12-17T17:57:21.317Z,-11232.47
2022-12-17T18:00:27.793Z,-11225.72
2022-12-17T18:03:34.481Z,-11235.16
2022-12-17T18:07:02.706Z,-11230.50
2022-12-17T18:10:11.212Z,-11229.66
2022-12-17T18:13:34.955Z,-11231.63
2022-12-17T18:16:43.255Z,-11234.31
2022-12-17T18:19:50.350Z,-11236.16
2022-12-17T18:22:57.831Z,-11230.22
2022-12-17T18:26:10.019Z,-11236.16
2022-12-17T18:29:17.999Z,-11234.31
2022-12-17T18:32:24.325Z,-11236.44
2022-12-17T18:35:30.469Z,-11237.97
2022-12-17T18:38:38.330Z,-11238.94
2022-12-17T18:42:03.156Z,-11240.63
2022-12-17T18:45:10.058Z,-11246.69
2022-12-17T18:48:16.008Z,-11245.16
2022-12-17T18:51:23.274Z,-11244.31
2022-12-17T18:54:33.020Z,-11242.47
2022-12-17T18:57:39.258Z,-11239.94
2022-12-17T19:00:45.419Z,-11238.09
2022-12-17T19:03:51.638Z,-11235.59
2022-12-17T19:06:57.621Z,-11235.31
2022-12-17T19:10:05.810Z,-11233.19
2022-12-17T19:13:12.269Z,-11242.19
2022-12-17T19:16:20.830Z,-11243.88
2022-12-17T19:19:27.961Z,-11239.38
2022-12-17T19:22:34.243Z,-11236.72
2022-12-17T19:25:42.110Z,-11239.50
2022-12-17T19:28:50.483Z,-11240.63
2022-12-17T19:31:57.028Z,-11241.06
2022-12-17T19:35:03.617Z,-11237.84
2022-12-17T19:38:09.969Z,-11238.53
2022-12-17T19:41:19.315Z,-11238.38
2022-12-17T19:44:27.002Z,-11237.00
2022-12-17T19:47:33.382Z,-11237.13
2022-12-17T19:50:39.900Z,-11228.25
2022-12-17T19:53:47.314Z,-11233.31
2022-12-17T19:56:55.639Z,-11240.22
2022-12-17T20:00:01.998Z,-11231.91
2022-12-17T20:03:08.607Z,-11241.47
2022-12-17T20:06:16.342Z,-11240.63
2022-12-17T20:09:23.264Z,-11237.84
2022-12-17T20:12:30.909Z,-11237.84
2022-12-17T20:15:37.090Z,-11237.69
2022-12-17T20:18:43.801Z,-11234.03
2022-12-17T20:21:50.446Z,-11238.94
2022-12-17T20:24:57.058Z,-11238.94
2022-12-17T20:28:04.823Z,-11235.31
2022-12-17T20:31:11.403Z,-11243.47
2022-12-17T20:34:19.098Z,-11236.16
2022-12-17T20:37:25.568Z,-11238.25
2022-12-17T20:40:31.610Z,-11236.44
2022-12-17T20:43:40.069Z,-11235.88
2022-12-17T20:46:46.245Z,-11238.66
2022-12-17T20:49:52.150Z,-11243.59
2022-12-17T20:52:58.275Z,-11248.66
2022-12-17T20:56:07.634Z,-11246.84
2022-12-17T20:59:17.809Z,-11242.59
2022-12-17T21:02:24.506Z,-11245.44
2022-12-17T21:05:31.154Z,-11246.28
2022-12-17T21:08:38.176Z,-11245.72
2022-12-17T21:11:44.384Z,-11239.78
2022-12-17T21:14:52.016Z,-11238.25
2022-12-17T21:17:58.154Z,-11241.34
2022-12-17T21:21:07.445Z,-11246.41
2022-12-17T21:24:13.517Z,-11238.94
2022-12-17T21:27:20.679Z,-11241.63
2022-12-17T21:30:28.450Z,-11244.31
2022-12-17T21:33:34.860Z,-11241.47
2022-12-17T21:36:45.291Z,-11237.13
2022-12-17T21:39:56.515Z,-11242.19
2022-12-17T21:43:06.225Z,-11248.81
2022-12-17T21:46:15.343Z,-11248.09
2022-12-17T21:49:21.826Z,-11242.59
2022-12-17T21:52:28.357Z,-11234.75
2022-12-17T21:55:34.881Z,-11232.63
2022-12-17T21:58:41.964Z,-11235.88
2022-12-17T22:01:51.106Z,-11231.63
2022-12-17T22:04:57.821Z,-11230.78
2022-12-17T22:08:04.780Z,-11237.97
2022-12-17T22:11:12.202Z,-11236.28
2022-12-17T22:14:21.192Z,-11239.09
2022-12-17T22:17:28.912Z,-11236.44
2022-12-17T22:20:35.148Z,-11239.38
2022-12-17T22:23:43.341Z,-11238.09
2022-12-17T22:26:50.095Z,-11239.50
2022-12-17T22:30:14.104Z,-11237.84
2022-12-17T22:34:06.604Z,-11237.84
2022-12-17T22:39:25.147Z,-11237.69
2022-12-17T22:44:30.302Z,-11236.72
2022-12-17T22:44:51.401Z,-11228.81
2022-12-17T22:47:07.331Z,-11237.69
2022-12-17T22:50:15.286Z,-11235.88
2022-12-17T22:53:22.785Z,-11232.06
2022-12-17T22:56:51.985Z,-11237.84
2022-12-17T22:59:56.059Z,-11233.03
2022-12-17T23:03:03.125Z,-11222.63
2022-12-17T23:06:13.225Z,-11226.84
2022-12-17T23:09:21.213Z,-11225.16
2022-12-17T23:12:44.980Z,-11219.53
2022-12-17T23:15:53.192Z,-11220.81
2022-12-17T23:19:01.599Z,-11224.03
2022-12-17T23:22:09.453Z,-11226.56
2022-12-17T23:25:16.817Z,-11227.84
2022-12-17T23:28:23.157Z,-11224.59
2022-12-17T23:31:33.297Z,-11225.44
2022-12-17T23:34:39.703Z,-11220.38
2022-12-17T23:37:47.241Z,-11224.59
2022-12-17T23:40:53.367Z,-11229.94
2022-12-17T23:44:00.304Z,-11226.84
2022-12-17T23:47:07.022Z,-11228.53
2022-12-17T23:50:13.476Z,-11229.94
2022-12-17T23:53:21.427Z,-11217.56
2022-12-17T23:56:29.179Z,-11219.81
2022-12-17T23:59:35.480Z,-11226.56
